« Back
NWS Peachtree City, Ga » Text Product » AHN Terminal Aerodrome Forecast


Printer-friendly Version
Current Version              Previous Versions:   1  2  3  4  5  6  7  8  9  

Terminal Aerodrome Forecast

591
FTUS42 KFFC 301739
TAFAHN
TAF
KAHN 301739Z 3018/3118 29010G16KT P6SM BKN025 BKN040
     FM302000 29008G16KT P6SM SCT025 SCT035
     FM302200 29010KT P6SM SKC
     FM310300 VRB03KT P6SM SKC
     FM311400 25005KT P6SM SCT035=

USA.gov is the U.S. government's official web portal to all federal, state and local government web resources and services.